KATY

Watertown Regional Airport

Watertown, South Dakota, USA
METAR KATY 210353Z AUTO 00000KT 10SM OVC070 01/M01 A2993 RMK AO2 SLP155 T00061011
Observed Flight Rules
Jan-21 @ 03:53 UTC (46 minutes ago) Visual Flight Rules
Wind Visibility Clouds
Calm 10 miles
  • Overcast at 7,000' AGL
Temperatures Readings
Current 1°C / 34°F
Dewpoint -1°C / 30°F
Humidity 87%
Altimeter 29.93" Hg
Pressure 1015.5 hPa
Elevation 532
METAR KATY 210353Z AUTO 00000KT 10SM OVC070 01/M01 A2993 RMK AO2 SLP155 T00061011
Observed Flight Rules
Jan-21 @ 03:53 UTC
(46 minutes ago)
VFR
Wind Visibility
Calm 10 miles
Clouds
  • Overcast at 7,000' AGL
Temperature Dewpoint
1°C / 34°F -1°C / 30°F
Humidity Altimeter Pressure
87% 29.93" Hg 1015.5 hPa